createdAt,value
2019-05-11T00:00:12.116Z,78.55
2019-05-11T00:02:43.759Z,78.65
2019-05-11T00:05:15.418Z,80.09
2019-05-11T00:07:47.069Z,80.57
2019-05-11T00:10:18.827Z,81.18
2019-05-11T00:12:50.481Z,80.01
2019-05-11T00:15:22.547Z,80.01
2019-05-11T00:17:54.402Z,80.03
2019-05-11T00:20:25.961Z,81.17
2019-05-11T00:22:57.716Z,79.85
2019-05-11T00:25:29.161Z,80.43
2019-05-11T00:28:00.743Z,81.33
2019-05-11T00:30:32.370Z,81.60
2019-05-11T00:33:04.334Z,80.97
2019-05-11T00:35:35.885Z,80.73
2019-05-11T00:38:07.641Z,80.93
2019-05-11T00:40:39.402Z,81.58
2019-05-11T00:43:10.167Z,80.28
2019-05-11T00:45:41.278Z,80.51
2019-05-11T00:48:12.930Z,80.67
2019-05-11T00:50:44.689Z,80.68
2019-05-11T00:53:16.595Z,80.93
2019-05-11T00:55:48.408Z,81.59
2019-05-11T00:58:21.392Z,82.05
2019-05-11T01:00:53.081Z,82.36
2019-05-11T01:03:24.309Z,81.65
2019-05-11T01:05:55.061Z,82.37
2019-05-11T01:08:26.173Z,82.51
2019-05-11T01:10:57.825Z,82.32
2019-05-11T01:13:30.306Z,82.01
2019-05-11T01:16:02.064Z,82.09
2019-05-11T01:18:34.022Z,82.42
2019-05-11T01:21:05.572Z,82.88
2019-05-11T01:23:37.929Z,82.83
2019-05-11T01:26:09.300Z,82.63
2019-05-11T01:28:41.149Z,82.50
2019-05-11T01:31:11.916Z,82.00
2019-05-11T01:33:43.243Z,81.18
2019-05-11T01:36:14.792Z,82.45
2019-05-11T01:38:46.646Z,82.67
2019-05-11T01:41:18.607Z,82.12
2019-05-11T01:43:50.361Z,82.39
2019-05-11T01:46:22.225Z,83.22
2019-05-11T01:48:53.982Z,83.16
2019-05-11T01:51:25.966Z,83.50
2019-05-11T01:53:57.397Z,84.52
2019-05-11T01:56:29.251Z,84.12
2019-05-11T01:59:01.013Z,84.47
2019-05-11T02:01:32.262Z,84.91
2019-05-11T02:04:03.817Z,84.76
2019-05-11T02:06:35.769Z,85.18
2019-05-11T02:09:07.734Z,85.25
2019-05-11T02:11:39.388Z,85.75
2019-05-11T02:14:11.243Z,86.24
2019-05-11T02:16:43.207Z,86.79
2019-05-11T02:19:14.966Z,86.30
2019-05-11T02:21:45.736Z,86.21
2019-05-11T02:24:16.824Z,86.14
2019-05-11T02:26:48.603Z,86.20
2019-05-11T02:29:20.360Z,86.57
2019-05-11T02:31:51.126Z,86.59
2019-05-11T02:34:22.441Z,86.67
2019-05-11T02:36:53.992Z,86.57
2019-05-11T02:39:25.748Z,87.07
2019-05-11T02:41:58.631Z,87.00
2019-05-11T02:44:29.296Z,86.85
2019-05-11T02:47:00.616Z,86.61
2019-05-11T02:49:32.581Z,86.68
2019-05-11T02:52:04.924Z,86.35
2019-05-11T02:54:37.590Z,86.12
2019-05-11T02:57:08.973Z,85.68
2019-05-11T02:59:40.627Z,84.79
2019-05-11T03:02:12.602Z,84.93
2019-05-11T03:04:44.141Z,84.49
2019-05-11T03:07:15.715Z,82.86
2019-05-11T03:09:47.557Z,79.87
2019-05-11T03:12:19.619Z,77.25
2019-05-11T03:14:51.173Z,76.12
2019-05-11T03:17:24.463Z,75.03
2019-05-11T03:19:55.814Z,76.55
2019-05-11T03:22:27.463Z,75.71
2019-05-11T03:24:58.919Z,76.41
2019-05-11T03:27:30.591Z,76.48
2019-05-11T03:30:02.555Z,78.55
2019-05-11T03:32:36.030Z,80.39
2019-05-11T03:35:07.888Z,80.81
2019-05-11T03:37:39.658Z,81.43
2019-05-11T03:40:12.021Z,81.90
2019-05-11T03:42:43.877Z,81.05
2019-05-11T03:45:16.066Z,79.56
2019-05-11T03:47:47.699Z,79.27
2019-05-11T03:50:19.565Z,77.64
2019-05-11T03:52:51.629Z,77.14
2019-05-11T03:55:23.085Z,76.75
2019-05-11T03:57:55.658Z,76.89
2019-05-11T04:00:27.415Z,78.02
2019-05-11T04:02:59.476Z,79.30
2019-05-11T04:05:31.022Z,78.47
2019-05-11T04:08:02.578Z,78.01
2019-05-11T04:10:34.339Z,77.66
2019-05-11T04:13:05.886Z,76.53
2019-05-11T04:15:37.566Z,76.78
2019-05-11T04:18:09.094Z,76.88
2019-05-11T04:20:40.954Z,76.13
2019-05-11T04:23:13.017Z,74.29
2019-05-11T04:25:44.880Z,74.62
2019-05-11T04:28:16.652Z,74.44
2019-05-11T04:30:48.398Z,73.33
2019-05-11T04:33:19.947Z,74.59
2019-05-11T04:35:51.604Z,73.07
2019-05-11T04:38:23.462Z,72.26
2019-05-11T04:40:55.114Z,72.24
2019-05-11T04:43:27.008Z,71.54
2019-05-11T04:45:58.636Z,72.18
2019-05-11T04:48:30.275Z,71.02
2019-05-11T04:51:02.041Z,70.76
2019-05-11T04:53:33.087Z,69.80
2019-05-11T04:56:04.235Z,70.05
2019-05-11T04:58:34.888Z,69.43
2019-05-11T05:01:06.614Z,69.02
2019-05-11T05:03:41.046Z,68.58
2019-05-11T05:06:22.202Z,66.86
2019-05-11T05:08:44.658Z,67.15
2019-05-11T05:11:16.715Z,67.25
2019-05-11T05:13:48.370Z,68.78
2019-05-11T05:16:20.231Z,69.75
2019-05-11T05:18:51.781Z,70.46
2019-05-11T05:21:23.435Z,69.71
2019-05-11T05:23:54.097Z,68.67
2019-05-11T05:26:25.319Z,68.05
2019-05-11T05:28:56.867Z,68.43
2019-05-11T05:31:28.727Z,68.57
2019-05-11T05:34:01.446Z,66.62
2019-05-11T05:36:33.061Z,66.41
2019-05-11T05:39:08.901Z,66.13
2019-05-11T05:41:40.674Z,65.94
2019-05-11T05:44:13.144Z,65.97
2019-05-11T05:46:44.694Z,65.42
2019-05-11T05:49:15.462Z,65.32
2019-05-11T05:51:46.897Z,64.10
2019-05-11T05:54:18.842Z,63.71
2019-05-11T05:56:50.499Z,61.72
2019-05-11T05:59:22.562Z,61.92
2019-05-11T06:01:54.383Z,61.55
2019-05-11T06:04:25.977Z,62.58
2019-05-11T06:06:57.829Z,62.99
2019-05-11T06:09:29.800Z,62.18
2019-05-11T06:12:01.579Z,62.23
2019-05-11T06:14:33.433Z,61.12
2019-05-11T06:17:04.964Z,60.87
2019-05-11T06:19:36.925Z,59.21
2019-05-11T06:22:08.692Z,60.99
2019-05-11T06:24:40.132Z,62.20
2019-05-11T06:27:10.895Z,61.09
2019-05-11T06:29:42.112Z,60.53
2019-05-11T06:32:13.864Z,61.02
2019-05-11T06:34:45.421Z,60.91
2019-05-11T06:37:16.183Z,61.15
2019-05-11T06:39:49.139Z,60.88
2019-05-11T06:42:21.003Z,60.02
2019-05-11T06:44:52.650Z,60.97
2019-05-11T06:47:25.847Z,60.11
2019-05-11T06:49:57.540Z,58.43
2019-05-11T06:52:29.575Z,57.25
2019-05-11T06:55:01.115Z,57.85
2019-05-11T06:57:32.873Z,55.84
2019-05-11T07:00:05.827Z,54.87
2019-05-11T07:02:38.027Z,55.90
2019-05-11T07:05:10.090Z,56.84
2019-05-11T07:07:47.412Z,54.06
2019-05-11T07:10:15.676Z,55.45
2019-05-11T07:12:47.246Z,54.95
2019-05-11T07:15:18.759Z,55.42
2019-05-11T07:17:50.511Z,55.15
2019-05-11T07:20:23.399Z,56.56
2019-05-11T07:22:55.054Z,55.98
2019-05-11T07:25:26.914Z,55.01
2019-05-11T07:27:58.568Z,54.84
2019-05-11T07:30:30.222Z,54.39
2019-05-11T07:33:02.389Z,54.72
2019-05-11T07:35:34.553Z,54.61
2019-05-11T07:38:08.353Z,54.15
2019-05-11T07:40:39.509Z,54.04
2019-05-11T07:43:11.879Z,52.88
2019-05-11T07:45:43.532Z,53.13
2019-05-11T07:48:15.403Z,54.49
2019-05-11T07:50:48.021Z,54.14
2019-05-11T07:53:19.933Z,53.99
2019-05-11T07:55:51.591Z,53.08
2019-05-11T07:58:22.349Z,52.93
2019-05-11T08:00:53.864Z,54.32
2019-05-11T08:03:28.183Z,53.30
2019-05-11T08:06:02.757Z,52.24
2019-05-11T08:08:33.132Z,52.52
2019-05-11T08:11:07.942Z,50.88
2019-05-11T08:13:39.018Z,50.56
2019-05-11T08:16:11.578Z,51.54
2019-05-11T08:18:43.437Z,50.88
2019-05-11T08:21:17.692Z,50.49
2019-05-11T08:23:49.006Z,51.64
2019-05-11T08:26:20.661Z,51.65
2019-05-11T08:28:52.624Z,51.75
2019-05-11T08:31:24.291Z,49.24
2019-05-11T08:33:58.234Z,47.81
2019-05-11T08:36:29.288Z,48.78
2019-05-11T08:39:00.777Z,48.83
2019-05-11T08:41:32.531Z,48.44
2019-05-11T08:44:04.373Z,47.40
2019-05-11T08:46:38.374Z,47.16
2019-05-11T08:49:09.345Z,47.44
2019-05-11T08:51:41.315Z,46.87
2019-05-11T08:54:13.163Z,45.93
2019-05-11T08:56:44.713Z,46.25
2019-05-11T08:59:18.639Z,46.57
2019-05-11T09:01:50.481Z,48.09
2019-05-11T09:04:22.043Z,47.34
2019-05-11T09:06:53.894Z,47.44
2019-05-11T09:09:25.657Z,47.80
2019-05-11T09:11:58.922Z,47.38
2019-05-11T09:14:30.636Z,45.93
2019-05-11T09:17:02.307Z,47.47
2019-05-11T09:19:34.050Z,45.33
2019-05-11T09:22:08.085Z,45.73
2019-05-11T09:24:39.169Z,47.12
2019-05-11T09:27:11.024Z,48.26
2019-05-11T09:29:42.580Z,49.42
2019-05-11T09:32:14.440Z,49.33
2019-05-11T09:34:48.318Z,48.55
2019-05-11T09:37:19.489Z,49.96
2019-05-11T09:39:51.146Z,50.87
2019-05-11T09:42:23.003Z,50.41
2019-05-11T09:44:54.354Z,51.86
2019-05-11T09:47:27.945Z,52.75
2019-05-11T09:49:59.196Z,51.77
2019-05-11T09:52:32.713Z,52.92
2019-05-11T09:55:05.476Z,51.54
2019-05-11T09:57:38.800Z,52.30
2019-05-11T10:00:10.626Z,53.13
2019-05-11T10:02:42.696Z,52.71
2019-05-11T10:05:14.556Z,53.36
2019-05-11T10:07:48.365Z,53.68
2019-05-11T10:10:19.296Z,53.95
2019-05-11T10:12:53.098Z,54.72
2019-05-11T10:15:24.670Z,54.81
2019-05-11T10:17:58.221Z,55.27
2019-05-11T10:20:29.411Z,55.84
2019-05-11T10:23:01.257Z,55.14
2019-05-11T10:25:32.662Z,54.55
2019-05-11T10:28:04.255Z,54.90
2019-05-11T10:30:38.414Z,55.04
2019-05-11T10:33:09.414Z,55.16
2019-05-11T10:35:41.999Z,55.89
2019-05-11T10:38:15.082Z,56.88
2019-05-11T10:40:48.017Z,57.07
2019-05-11T10:43:20.640Z,57.79
2019-05-11T10:45:51.302Z,58.31
2019-05-11T10:48:22.703Z,58.35
2019-05-11T10:50:54.480Z,58.07
2019-05-11T10:53:27.886Z,56.92
2019-05-11T10:55:59.425Z,56.87
2019-05-11T10:58:31.286Z,56.90
2019-05-11T11:01:03.072Z,57.81
2019-05-11T11:03:35.109Z,56.96
2019-05-11T11:06:08.450Z,56.99
2019-05-11T11:08:40.181Z,58.08
2019-05-11T11:11:11.711Z,56.84
2019-05-11T11:13:43.373Z,56.43
2019-05-11T11:16:14.917Z,55.62
2019-05-11T11:18:48.570Z,56.46
2019-05-11T11:21:22.776Z,55.96
2019-05-11T11:23:53.163Z,57.21
2019-05-11T11:26:25.015Z,56.38
2019-05-11T11:28:58.125Z,57.58
2019-05-11T11:31:29.762Z,56.87
2019-05-11T11:34:01.224Z,57.15
2019-05-11T11:36:32.871Z,56.69
2019-05-11T11:39:08.366Z,56.10
2019-05-11T11:41:39.964Z,57.96
2019-05-11T11:44:12.340Z,58.19
2019-05-11T11:46:52.159Z,58.09
2019-05-11T11:49:18.795Z,57.66
2019-05-11T11:51:50.915Z,57.07
2019-05-11T11:54:23.004Z,59.15
2019-05-11T11:56:54.708Z,59.27
2019-05-11T11:59:25.545Z,62.74
2019-05-11T12:01:58.103Z,64.62
2019-05-11T12:04:30.083Z,64.99
2019-05-11T12:07:01.939Z,66.61
2019-05-11T12:09:33.714Z,68.04
2019-05-11T12:12:07.851Z,69.08
2019-05-11T12:14:39.061Z,70.10
2019-05-11T12:17:11.236Z,70.80
2019-05-11T12:19:42.879Z,72.30
2019-05-11T12:22:14.334Z,72.12
2019-05-11T12:24:48.108Z,71.35
2019-05-11T12:27:19.693Z,72.58
2019-05-11T12:29:51.550Z,73.75
2019-05-11T12:32:27.679Z,75.63
2019-05-11T12:34:59.570Z,76.17
2019-05-11T12:37:31.328Z,77.75
2019-05-11T12:40:04.003Z,77.22
2019-05-11T12:42:38.060Z,78.11
2019-05-11T12:45:10.133Z,80.04
2019-05-11T12:47:41.530Z,79.60
2019-05-11T12:50:13.491Z,79.50
2019-05-11T12:52:47.547Z,79.73
2019-05-11T12:55:18.541Z,78.34
2019-05-11T12:57:50.198Z,78.82
2019-05-11T13:00:22.258Z,77.59
2019-05-11T13:02:54.323Z,77.34
2019-05-11T13:05:25.778Z,78.01
2019-05-11T13:07:58.621Z,79.25
2019-05-11T13:10:30.417Z,79.30
2019-05-11T13:13:02.796Z,77.13
2019-05-11T13:15:34.419Z,78.55
2019-05-11T13:18:08.377Z,77.66
2019-05-11T13:20:41.640Z,77.56
2019-05-11T13:23:13.399Z,79.50
2019-05-11T13:25:45.056Z,80.02
2019-05-11T13:28:17.966Z,79.20
2019-05-11T13:30:49.599Z,79.69
2019-05-11T13:33:20.571Z,79.28
2019-05-11T13:35:51.777Z,79.74
2019-05-11T13:38:23.533Z,81.53
2019-05-11T13:40:56.116Z,81.99
2019-05-11T13:43:30.120Z,80.72
2019-05-11T13:46:01.883Z,78.63
2019-05-11T13:48:33.748Z,79.74
2019-05-11T13:51:05.496Z,78.23
2019-05-11T13:53:37.790Z,79.72
2019-05-11T13:56:09.418Z,80.15
2019-05-11T13:58:40.976Z,81.20
2019-05-11T14:01:13.245Z,79.61
2019-05-11T14:03:44.734Z,79.36
2019-05-11T14:06:18.490Z,77.60
2019-05-11T14:08:49.551Z,76.86
2019-05-11T14:11:21.291Z,77.28
2019-05-11T14:13:53.157Z,76.01
2019-05-11T14:16:27.136Z,76.39
2019-05-11T14:18:58.417Z,76.98
2019-05-11T14:21:30.372Z,77.87
2019-05-11T14:24:01.922Z,77.46
2019-05-11T14:26:33.579Z,76.56
2019-05-11T14:29:05.546Z,76.82
2019-05-11T14:31:38.650Z,77.71
2019-05-11T14:34:10.590Z,78.55
2019-05-11T14:36:42.446Z,78.15
2019-05-11T14:39:14.106Z,78.47
2019-05-11T14:41:48.561Z,78.70
2019-05-11T14:44:19.067Z,78.86
2019-05-11T14:46:50.614Z,77.68
2019-05-11T14:49:22.363Z,78.12
2019-05-11T14:51:54.639Z,77.92
2019-05-11T14:54:28.655Z,77.84
2019-05-11T14:56:59.889Z,77.18
2019-05-11T14:59:31.565Z,77.44
2019-05-11T15:02:08.679Z,77.14
2019-05-11T15:04:40.072Z,77.26
2019-05-11T15:07:12.045Z,76.80
2019-05-11T15:09:43.693Z,76.55
2019-05-11T15:12:15.451Z,76.17
2019-05-11T15:14:48.450Z,75.76
2019-05-11T15:17:19.279Z,75.76
2019-05-11T15:19:51.236Z,76.13
2019-05-11T15:22:23.097Z,76.50
2019-05-11T15:24:53.858Z,77.14
2019-05-11T15:27:25.071Z,75.64
2019-05-11T15:29:58.812Z,75.26
2019-05-11T15:32:29.931Z,75.04
2019-05-11T15:35:01.571Z,75.89
2019-05-11T15:37:34.562Z,75.26
2019-05-11T15:40:14.918Z,75.34
2019-05-11T15:42:48.673Z,74.80
2019-05-11T15:45:21.620Z,74.43
2019-05-11T15:47:53.283Z,74.62
2019-05-11T15:50:25.123Z,74.60
2019-05-11T15:52:58.223Z,74.71
2019-05-11T15:55:30.070Z,74.28
2019-05-11T15:58:01.826Z,73.13
2019-05-11T16:00:32.487Z,73.74
2019-05-11T16:03:04.132Z,73.67
2019-05-11T16:05:35.969Z,74.01
2019-05-11T16:08:08.652Z,73.91
2019-05-11T16:10:40.307Z,74.48
2019-05-11T16:13:12.265Z,75.71
2019-05-11T16:15:44.066Z,76.19
2019-05-11T16:18:18.675Z,76.28
2019-05-11T16:20:52.645Z,76.92
2019-05-11T16:23:28.410Z,76.94
2019-05-11T16:26:00.069Z,77.68
2019-05-11T16:28:31.923Z,78.16
2019-05-11T16:31:03.786Z,78.50
2019-05-11T16:33:36.678Z,78.56
2019-05-11T16:36:09.208Z,79.42
2019-05-11T16:38:42.805Z,79.44
2019-05-11T16:41:17.858Z,79.86
2019-05-11T16:43:49.635Z,80.09
2019-05-11T16:46:21.494Z,80.20
2019-05-11T16:48:53.354Z,80.69
2019-05-11T16:51:24.923Z,81.08
2019-05-11T16:53:58.776Z,81.51
2019-05-11T16:56:30.477Z,81.80
2019-05-11T16:59:02.543Z,82.68
2019-05-11T17:01:34.557Z,82.92
2019-05-11T17:04:06.048Z,83.28
2019-05-11T17:06:38.577Z,83.23
2019-05-11T17:09:10.497Z,83.89
2019-05-11T17:11:42.555Z,84.53
2019-05-11T17:14:14.131Z,85.12
2019-05-11T17:16:48.063Z,85.73
2019-05-11T17:19:19.974Z,86.01
2019-05-11T17:21:52.146Z,85.86
2019-05-11T17:24:23.892Z,85.88
2019-05-11T17:26:58.231Z,86.37
2019-05-11T17:29:29.260Z,86.63
2019-05-11T17:32:00.920Z,86.82
2019-05-11T17:34:32.801Z,87.02
2019-05-11T17:37:08.365Z,87.21
2019-05-11T17:39:39.357Z,87.28
2019-05-11T17:42:11.420Z,87.04
2019-05-11T17:44:42.981Z,87.40
2019-05-11T17:47:14.944Z,87.34
2019-05-11T17:49:57.350Z,87.64
2019-05-11T17:52:20.149Z,87.82
2019-05-11T17:54:54.947Z,87.93
2019-05-11T17:57:24.841Z,88.19
2019-05-11T17:59:57.942Z,88.66
2019-05-11T18:02:29.987Z,88.82
2019-05-11T18:05:01.441Z,88.62
2019-05-11T18:07:34.211Z,89.27
2019-05-11T18:10:08.208Z,89.39
2019-05-11T18:12:39.895Z,89.90
2019-05-11T18:15:11.925Z,90.30
2019-05-11T18:17:43.381Z,90.58
2019-05-11T18:20:18.649Z,90.31
2019-05-11T18:22:49.499Z,89.60
2019-05-11T18:25:21.227Z,89.34
2019-05-11T18:27:52.987Z,89.34
2019-05-11T18:30:24.636Z,88.76
2019-05-11T18:32:59.226Z,88.62
2019-05-11T18:35:29.694Z,88.11
2019-05-11T18:38:01.347Z,88.33
2019-05-11T18:40:33.106Z,89.17
2019-05-11T18:43:05.170Z,89.28
2019-05-11T18:45:38.297Z,89.59
2019-05-11T18:48:10.225Z,89.09
2019-05-11T18:50:41.882Z,88.60
2019-05-11T18:53:14.047Z,89.32
2019-05-11T18:55:45.597Z,90.23
2019-05-11T18:58:18.434Z,90.25
2019-05-11T19:00:50.715Z,90.46
2019-05-11T19:03:22.919Z,90.44
2019-05-11T19:05:57.577Z,90.79
2019-05-11T19:08:28.226Z,90.87
2019-05-11T19:10:59.855Z,90.74
2019-05-11T19:13:31.782Z,91.10
2019-05-11T19:16:03.643Z,90.26
2019-05-11T19:18:35.609Z,90.60
2019-05-11T19:21:09.206Z,91.18
2019-05-11T19:23:40.145Z,91.86
2019-05-11T19:26:11.800Z,92.38
2019-05-11T19:28:43.455Z,92.06
2019-05-11T19:31:15.112Z,91.45
2019-05-11T19:33:48.951Z,90.15
2019-05-11T19:36:20.260Z,91.36
2019-05-11T19:38:51.918Z,92.28
2019-05-11T19:41:23.674Z,92.65
2019-05-11T19:43:57.691Z,92.94
2019-05-11T19:46:28.733Z,92.51
2019-05-11T19:49:00.477Z,92.40
2019-05-11T19:51:32.339Z,93.01
2019-05-11T19:54:03.993Z,93.63
2019-05-11T19:56:37.798Z,93.95
2019-05-11T19:59:08.951Z,94.07
2019-05-11T20:01:43.874Z,93.85
2019-05-11T20:04:15.430Z,94.27
2019-05-11T20:06:47.936Z,94.03
2019-05-11T20:09:19.558Z,93.94
2019-05-11T20:11:51.314Z,93.62
2019-05-11T20:14:22.760Z,93.52
2019-05-11T20:16:54.324Z,93.09
2019-05-11T20:19:27.852Z,92.97
2019-05-11T20:21:59.159Z,92.44
2019-05-11T20:24:30.813Z,92.03
2019-05-11T20:27:02.471Z,93.14
2019-05-11T20:29:35.563Z,93.00
2019-05-11T20:32:08.054Z,93.14
2019-05-11T20:34:39.481Z,93.61
2019-05-11T20:37:11.136Z,92.96
2019-05-11T20:39:43.003Z,93.22
2019-05-11T20:42:13.761Z,93.44
2019-05-11T20:44:45.178Z,93.37
2019-05-11T20:47:17.849Z,92.71
2019-05-11T20:49:49.412Z,92.83
2019-05-11T20:52:21.379Z,93.18
2019-05-11T20:54:52.825Z,92.96
2019-05-11T20:57:24.275Z,92.49
2019-05-11T20:59:57.568Z,92.70
2019-05-11T21:02:29.322Z,93.24
2019-05-11T21:05:00.975Z,93.00
2019-05-11T21:07:31.709Z,92.91
2019-05-11T21:10:03.158Z,93.32
2019-05-11T21:12:35.024Z,93.50
2019-05-11T21:15:08.566Z,93.84
2019-05-11T21:21:06.513Z,94.24
2019-05-11T21:23:40.526Z,94.39
2019-05-11T21:26:11.154Z,94.00
2019-05-11T21:28:48.514Z,94.62
2019-05-11T21:31:19.074Z,94.62
2019-05-11T21:33:50.656Z,94.45
2019-05-11T21:36:22.176Z,94.91
2019-05-11T21:38:53.830Z,94.60
2019-05-11T21:41:30.492Z,94.53
2019-05-11T21:43:58.781Z,94.80
2019-05-11T21:46:29.544Z,94.06
2019-05-11T21:49:01.983Z,93.60
2019-05-11T21:51:32.750Z,94.61
2019-05-11T21:54:04.364Z,95.74
2019-05-11T21:56:40.553Z,96.41
2019-05-11T21:59:09.848Z,96.45
2019-05-11T22:01:41.695Z,96.65
2019-05-11T22:04:13.554Z,96.72
2019-05-11T22:06:45.207Z,96.90
2019-05-11T22:09:18.562Z,97.14
2019-05-11T22:11:50.172Z,97.58
2019-05-11T22:14:21.811Z,98.07
2019-05-11T22:16:53.572Z,97.98
2019-05-11T22:19:24.331Z,97.84
2019-05-11T22:21:55.546Z,97.97
2019-05-11T22:24:28.290Z,98.56
2019-05-11T22:27:00.314Z,99.00
2019-05-11T22:29:31.951Z,99.12
2019-05-11T22:32:03.704Z,99.00
2019-05-11T22:34:37.833Z,99.01
2019-05-11T22:37:09.472Z,98.92
2019-05-11T22:39:40.922Z,98.87
2019-05-11T22:42:12.679Z,99.04
2019-05-11T22:44:44.743Z,99.01
2019-05-11T22:47:17.880Z,99.08
2019-05-11T22:49:49.775Z,98.88
2019-05-11T22:52:32.983Z,98.24
2019-05-11T22:54:55.557Z,98.13
2019-05-11T22:57:27.313Z,98.40
2019-05-11T23:00:01.575Z,99.09
2019-05-11T23:02:34.201Z,98.87
2019-05-11T23:05:08.474Z,100.00
2019-05-11T23:07:41.340Z,100.00
2019-05-11T23:10:13.271Z,100.00
2019-05-11T23:12:45.030Z,100.00
2019-05-11T23:15:18.527Z,100.00
2019-05-11T23:17:50.289Z,100.00
2019-05-11T23:20:22.246Z,100.00
2019-05-11T23:22:59.070Z,100.00
2019-05-11T23:25:28.748Z,100.00
2019-05-11T23:27:59.978Z,100.00
2019-05-11T23:30:31.731Z,100.00
2019-05-11T23:33:03.491Z,100.00
2019-05-11T23:35:35.144Z,100.00
2019-05-11T23:38:07.008Z,100.00
2019-05-11T23:40:38.772Z,100.00
2019-05-11T23:43:10.418Z,100.00
2019-05-11T23:45:41.078Z,100.00
2019-05-11T23:48:12.613Z,100.00
2019-05-11T23:50:45.892Z,100.00
2019-05-11T23:53:19.599Z,100.00
2019-05-11T23:55:51.254Z,100.00
2019-05-11T23:58:22.915Z,100.00
